digitallydownloaded.net alexa rank chart, digitallydownloaded.net alexa rank daily changes

digitallydownloaded.net alexa rank chart, digitallydownloaded.net alexa rank daily changes

digitallydownloaded.net
Actual rank:
398 903

RANK HISTORY

Date Rank Diff
2018/06/24 398 903 -81 184
2018/06/23 480 087 -123 270
2018/06/22 603 357 +111 398
2018/06/21 491 959 +46 113
2018/06/19 445 846 +73 515
2018/06/18 372 331 -374 827
2018/06/17 747 158 +431 576
2018/06/16 315 582 +28 743
2018/06/15 286 839 -82 862
2018/06/14 369 701 +204 546
2018/06/13 165 155 -179 763
2018/06/12 344 918 +164 203
2018/06/11 180 715 -773 330
2018/06/10 954 045 +640 644
2018/06/09 313 401 -112 946
2018/06/08 426 347 -212 266
2018/06/07 638 613 +5 564
2018/06/06 633 049 +16 006
2018/06/02 617 043 -111 600
2018/06/01 728 643 +341 074
2018/05/30 387 569 +10 195
2018/05/29 377 374 -245 935
2018/05/28 623 309 +185 990
2018/05/27 437 319 +198 492
2018/05/26 238 827 -544 485
2018/05/25 783 312 +299 691
2018/05/24 483 621 +185 266
2018/05/22 298 355 -30 349
2018/05/21 328 704 -481 108
2018/05/20 809 812 +368 356
2018/05/18 441 456 +172 816
2018/05/16 268 640 +72 756
2018/05/15 195 884 -772 148
2018/05/11 968 032 +552 808
2018/05/09 415 224 +60 460
2018/05/08 354 764 -421 457
2018/05/07 776 221 +398 540
2018/05/02 377 681 +41 341
2018/04/30 336 340 +55 992
2018/04/29 280 348 +157 685
2018/04/28 122 663 -204 400
2018/04/26 327 063

WIDGET FOR YOUR SITE

DOMAINS WITH THE NEAREST RANK

Domain Rank
quicknews365.com 398 898
thepieholela.com 398 899
americantrigger.com 398 900
beanactuary.org 398 901
borngroup.com 398 902
digitallydownloaded.net 398 903
discount-car-insurance-rates.com 398 904
johnsonfit.com 398 905
kineticsnoise.com 398 906
latinodeal.com 398 907
mediabrains.com 398 908

DOMAINS WITH THE NEAREST RANK BY TLD .net

Domain Rank
grapevinedigitizing.net 398 849
scrabblewordmaker.net 398 865
totopan.net 398 870
worktap.net 398 873
yukei.net 398 877
digitallydownloaded.net 398 903
showbizzz.net 398 930
import-sigaret.net 398 941
12bet.net 398 953
nuevastecnologias.net 398 956
ukrtelecom.net 398 961